Terminal Aerodrome Forecast
Issued by NWS Cleveland, OH

Home | Current Version | Previous Version | Graphics & Text | Print | Product List | Glossary On
Versions: 1 2 3 4 5 6 7 8 9 10 11 12 13 14 15 16 17 18 19
262
FTUS41 KCLE 040520
TAFCAK
TAF
KCAK 040520Z 0406/0506 28004KT P6SM OVC030
     FM041000 VRB03KT P6SM SCT030 BKN100
     FM042300 11004KT 6SM -RASN BKN025 OVC030
     FM050200 12004KT 2SM -SN OVC020=

USA.gov is the U.S. government's official web portal to all federal, state and local government web resources and services.